Time;durP1;ratioP1;P1;durP2;ratioP2;P2;SDS_P1;SDS_P2;PMS_P1;PMS_P2;Temp;Humidity;BMP_temperature;BMP_pressure;BME280_temperature;BME280_humidity;BME280_pressure;Samples;Min_cycle;Max_cycle;Signal;HPM_P1;HPM_P2
2022/02/22 00:06:04;;;;;;;1.75;0.00;;;-1.00;91.70;;;;;;21064385;28;20032;-55
2022/02/22 00:16:07;;;;;;;0.05;0.00;;;-1.10;93.40;;;;;;21063799;28;20040;-57
2022/02/22 00:26:09;;;;;;;0.30;0.10;;;-1.40;93.20;;;;;;21065820;28;20040;-56
2022/02/22 00:36:12;;;;;;;0.38;0.00;;;-1.30;93.70;;;;;;21061952;28;20089;-54
2022/02/22 00:46:14;;;;;;;0.00;0.00;;;-1.20;94.40;;;;;;21077773;28;20556;-58
2022/02/22 00:56:17;;;;;;;0.17;0.05;;;-1.30;95.70;;;;;;21076812;28;20094;-58
2022/02/22 01:06:20;;;;;;;0.20;0.00;;;-1.50;97.00;;;;;;21076319;28;20475;-58
2022/02/22 01:16:23;;;;;;;0.28;0.00;;;-1.40;95.30;;;;;;21076094;28;20395;-56
2022/02/22 01:26:25;;;;;;;0.10;0.00;;;-1.00;94.90;;;;;;21075160;28;20028;-58
2022/02/22 01:36:27;;;;;;;0.55;0.00;;;-1.00;94.70;;;;;;21073927;28;20070;-58
2022/02/22 01:46:30;;;;;;;0.00;0.00;;;-0.80;93.30;;;;;;21073328;28;20029;-54
2022/02/22 01:56:35;;;;;;;0.00;0.00;;;-0.80;93.10;;;;;;21072264;28;20044;-54
2022/02/22 02:06:39;;;;;;;0.15;0.00;;;-0.50;92.30;;;;;;21055467;28;20495;-57
2022/02/22 02:16:42;;;;;;;0.00;0.00;;;-0.30;91.30;;;;;;21071581;28;20365;-57
2022/02/22 02:26:45;;;;;;;0.00;0.00;;;0.10;89.90;;;;;;21070152;28;20032;-56
2022/02/22 02:36:48;;;;;;;0.10;0.03;;;0.40;89.80;;;;;;21052814;28;20032;-55
2022/02/22 02:46:51;;;;;;;0.10;0.00;;;0.40;89.20;;;;;;21068949;28;20140;-56
2022/02/22 02:56:53;;;;;;;0.00;0.00;;;-0.10;87.10;;;;;;21067219;28;20149;-57
2022/02/22 03:06:56;;;;;;;0.00;0.00;;;0.30;89.30;;;;;;21067258;28;20089;-55
2022/02/22 03:16:59;;;;;;;0.00;0.00;;;0.10;87.00;;;;;;21067164;28;20089;-58
2022/02/22 03:27:01;;;;;;;0.43;0.00;;;-0.30;89.40;;;;;;21066026;28;20036;-57
2022/02/22 03:37:05;;;;;;;0.32;0.00;;;-0.60;90.80;;;;;;21065743;28;20054;-57
2022/02/22 03:47:07;;;;;;;0.00;0.00;;;-0.90;91.10;;;;;;21065175;28;20105;-56
2022/02/22 03:57:09;;;;;;;0.00;0.00;;;-1.00;90.60;;;;;;21065064;28;20394;-58
2022/02/22 04:07:13;;;;;;;0.00;0.00;;;-1.20;90.40;;;;;;21078889;28;20403;-58
2022/02/22 04:17:15;;;;;;;0.00;0.00;;;0.50;80.30;;;;;;21080252;28;20044;-56
2022/02/22 04:27:18;;;;;;;0.28;0.00;;;0.80;79.40;;;;;;21079411;28;20040;-60
2022/02/22 04:37:20;;;;;;;0.00;0.00;;;1.10;77.40;;;;;;21062278;28;20369;-58
2022/02/22 04:47:23;;;;;;;0.10;0.00;;;0.50;78.70;;;;;;21079118;28;20040;-57
2022/02/22 04:57:26;;;;;;;0.10;0.00;;;0.90;74.50;;;;;;21077348;28;20087;-56
2022/02/22 05:07:29;;;;;;;0.10;0.00;;;1.60;73.80;;;;;;21076771;28;20040;-58
2022/02/22 05:17:32;;;;;;;0.10;0.00;;;1.60;72.20;;;;;;21075389;28;20127;-56
2022/02/22 05:27:35;;;;;;;0.35;0.00;;;1.40;72.70;;;;;;21075367;28;20089;-56
2022/02/22 05:37:38;;;;;;;0.00;0.00;;;1.40;74.30;;;;;;21074808;28;20491;-55
2022/02/22 05:47:40;;;;;;;0.00;0.00;;;1.30;75.20;;;;;;21073357;28;20036;-58
2022/02/22 05:57:43;;;;;;;0.28;0.00;;;1.40;76.10;;;;;;21071384;28;20446;-53
2022/02/22 06:07:45;;;;;;;0.00;0.00;;;1.50;76.80;;;;;;21072114;28;20556;-54
2022/02/22 06:17:48;;;;;;;0.10;0.00;;;1.50;76.50;;;;;;21071249;28;20063;-56
2022/02/22 06:27:54;;;;;;;0.10;0.00;;;1.30;77.20;;;;;;21069601;28;20036;-54
2022/02/22 06:37:56;;;;;;;0.00;0.00;;;1.60;77.20;;;;;;21070492;28;20046;-53
2022/02/22 06:47:59;;;;;;;0.00;0.00;;;1.30;81.10;;;;;;21068562;28;20044;-57
2022/02/22 06:58:09;;;;;;;0.00;0.00;;;1.00;84.00;;;;;;21051663;28;20040;-57
2022/02/22 07:08:12;;;;;;;0.00;0.00;;;0.90;76.40;;;;;;21036474;28;20494;-55
2022/02/22 07:18:15;;;;;;;0.00;0.00;;;1.70;78.50;;;;;;21067394;28;20200;-55
2022/02/22 07:28:18;;;;;;;0.15;0.00;;;1.80;81.20;;;;;;21066705;28;20032;-59
2022/02/22 07:38:22;;;;;;;0.00;0.00;;;2.00;71.00;;;;;;21079638;28;20032;-56
2022/02/22 07:48:25;;;;;;;0.00;0.00;;;3.10;70.70;;;;;;21093332;28;20089;-53
2022/02/22 07:58:27;;;;;;;0.20;0.00;;;4.00;66.60;;;;;;21093182;28;20184;-54
2022/02/22 08:08:30;;;;;;;0.00;0.00;;;4.80;69.10;;;;;;21094082;28;20036;-58
2022/02/22 08:18:35;;;;;;;0.20;0.00;;;5.20;70.40;;;;;;21092930;28;20048;-58
2022/02/22 08:28:39;;;;;;;0.40;0.00;;;5.50;70.40;;;;;;21092113;28;20040;-58
2022/02/22 08:38:42;;;;;;;0.63;0.00;;;5.40;63.10;;;;;;21075798;28;20378;-58
2022/02/22 08:48:45;;;;;;;0.00;0.00;;;5.40;62.00;;;;;;21085250;28;20556;-57
2022/02/22 08:58:48;;;;;;;2.90;0.00;;;5.20;61.80;;;;;;21078029;28;20040;-56
2022/02/22 09:08:50;;;;;;;0.30;0.00;;;5.10;72.80;;;;;;21076925;28;20058;-58
2022/02/22 09:18:53;;;;;;;0.00;0.00;;;5.20;71.80;;;;;;21076812;28;20065;-58
2022/02/22 09:28:58;;;;;;;0.30;0.00;;;5.30;71.40;;;;;;21075251;28;20472;-57
2022/02/22 09:39:01;;;;;;;0.28;0.00;;;5.30;72.90;;;;;;21075791;28;20085;-58
2022/02/22 09:49:03;;;;;;;0.10;0.00;;;5.60;68.50;;;;;;21074096;28;20036;-58
2022/02/22 09:59:06;;;;;;;0.20;0.00;;;5.80;71.30;;;;;;21072500;28;20039;-58
2022/02/22 10:09:09;;;;;;;0.00;0.00;;;6.20;73.60;;;;;;21072049;28;20102;-58
2022/02/22 10:19:16;;;;;;;0.00;0.00;;;6.40;70.70;;;;;;21070489;28;20093;-58
2022/02/22 10:29:21;;;;;;;0.10;0.03;;;6.40;69.60;;;;;;21070603;28;20044;-57
2022/02/22 10:39:23;;;;;;;0.35;0.00;;;6.40;70.40;;;;;;21070230;28;20109;-58
2022/02/22 10:49:34;;;;;;;0.00;0.00;;;6.30;76.80;;;;;;21069228;28;20048;-58
2022/02/22 10:59:36;;;;;;;;;;;7.50;75.20;;;;;;21069058;28;20395;-58
2022/02/22 11:09:40;;;;;;;0.10;0.00;;;8.30;71.00;;;;;;21067127;28;19916;-58
2022/02/22 11:19:45;;;;;;;0.40;0.00;;;8.40;72.20;;;;;;21066981;28;20437;-58
2022/02/22 11:29:56;;;;;;;0.30;0.08;;;8.20;67.90;;;;;;21066772;28;20089;-58
2022/02/22 11:39:58;;;;;;;0.17;0.00;;;8.70;66.20;;;;;;21066328;28;20036;-59
2022/02/22 11:50:10;;;;;;;0.65;0.10;;;9.60;69.90;;;;;;21065484;28;20070;-58
2022/02/22 12:00:15;;;;;;;0.00;0.00;;;10.30;67.60;;;;;;21065335;28;20040;-60
2022/02/22 12:10:23;;;;;;;0.20;0.08;;;10.70;69.00;;;;;;21064773;28;20077;-58
2022/02/22 12:20:27;;;;;;;0.20;0.00;;;10.80;63.00;;;;;;21066132;28;20036;-59
2022/02/22 12:30:36;;;;;;;0.00;0.00;;;10.80;57.80;;;;;;21080247;28;20044;-58
2022/02/22 12:40:38;;;;;;;1.88;0.10;;;9.50;59.30;;;;;;21079370;28;20036;-59
2022/02/22 12:50:41;;;;;;;0.10;0.00;;;8.80;54.30;;;;;;21078455;28;20093;-59
2022/02/22 13:00:44;;;;;;;0.10;0.00;;;8.40;60.00;;;;;;21061479;28;20387;-58
2022/02/22 13:10:50;;;;;;;0.10;0.00;;;8.90;55.10;;;;;;21077488;28;20032;-60
2022/02/22 13:20:54;;;;;;;0.10;0.00;;;8.50;55.60;;;;;;21076191;28;20040;-60
2022/02/22 13:30:59;;;;;;;0.00;0.00;;;8.90;54.50;;;;;;21075349;28;20048;-60
2022/02/22 13:41:13;;;;;;;0.30;0.05;;;9.10;53.60;;;;;;21073581;28;20032;-60
2022/02/22 13:51:15;;;;;;;0.32;0.10;;;8.40;55.90;;;;;;21059235;28;20039;-59
2022/02/22 14:01:18;;;;;;;0.57;0.10;;;8.70;63.00;;;;;;21072821;28;20384;-59
2022/02/22 14:11:21;;;;;;;1.23;0.38;;;8.70;65.50;;;;;;21072668;28;20093;-58
2022/02/22 14:21:23;;;;;;;0.25;0.08;;;8.20;63.60;;;;;;21071165;28;20032;-56
2022/02/22 14:31:27;;;;;;;0.20;0.10;;;7.80;65.70;;;;;;21070337;28;20036;-57
2022/02/22 14:41:29;;;;;;;0.85;0.10;;;7.40;64.90;;;;;;21069858;28;20388;-58
2022/02/22 14:51:32;;;;;;;0.88;0.10;;;7.00;64.60;;;;;;21068455;28;20482;-55
2022/02/22 15:01:35;;;;;;;0.45;0.10;;;6.80;66.80;;;;;;21070347;28;20044;-56
2022/02/22 15:11:37;;;;;;;0.55;0.10;;;6.70;68.60;;;;;;21067626;28;20065;-56
2022/02/22 15:21:40;;;;;;;0.28;0.10;;;6.30;66.70;;;;;;21067224;28;20548;-56
2022/02/22 15:31:42;;;;;;;0.30;0.17;;;5.90;67.60;;;;;;21067509;28;20035;-56
2022/02/22 15:41:46;;;;;;;1.73;0.30;;;5.90;67.70;;;;;;21066287;28;20032;-57
2022/02/22 15:51:48;;;;;;;0.60;0.17;;;5.90;66.80;;;;;;21066133;28;20388;-57
2022/02/22 16:01:52;;;;;;;0.82;0.10;;;5.70;69.40;;;;;;21060704;28;20551;-58
2022/02/22 16:11:57;;;;;;;0.10;0.00;;;5.30;73.70;;;;;;21064945;28;20407;-56
2022/02/22 16:22:00;;;;;;;0.22;0.10;;;4.50;78.90;;;;;;21080824;28;20036;-56
2022/02/22 16:32:11;;;;;;;0.30;0.10;;;3.90;84.30;;;;;;21080930;28;20394;-57
2022/02/22 16:42:15;;;;;;;4.10;1.58;;;3.30;82.50;;;;;;21062728;28;20444;-54
2022/02/22 16:52:17;;;;;;;1.77;0.70;;;2.50;86.40;;;;;;21078234;28;20101;-55
2022/02/22 17:02:20;;;;;;;0.32;0.13;;;2.00;87.90;;;;;;21076681;28;20059;-53
2022/02/22 17:12:23;;;;;;;0.05;0.00;;;1.70;89.90;;;;;;21075639;28;20036;-54
2022/02/22 17:22:26;;;;;;;0.20;0.10;;;1.50;90.90;;;;;;21075975;28;20085;-58
2022/02/22 17:32:28;;;;;;;0.75;0.10;;;1.30;87.00;;;;;;21067661;28;20391;-55
2022/02/22 17:42:32;;;;;;;0.00;0.00;;;1.40;90.70;;;;;;21074981;28;20133;-61
2022/02/22 17:52:35;;;;;;;0.20;0.00;;;1.10;90.80;;;;;;21073949;28;20048;-55
2022/02/22 18:02:42;;;;;;;0.10;0.00;;;1.10;91.30;;;;;;21056390;28;20048;-57
2022/02/22 18:12:48;;;;;;;0.20;0.10;;;1.00;91.50;;;;;;21071057;28;20035;-58
2022/02/22 18:22:50;;;;;;;1.75;0.00;;;0.90;90.50;;;;;;21070797;28;20125;-58
2022/02/22 18:32:53;;;;;;;0.40;0.10;;;0.90;91.00;;;;;;21070317;28;20054;-61
2022/02/22 18:42:56;;;;;;;0.10;0.00;;;0.80;91.10;;;;;;21059433;28;20048;-59
2022/02/22 18:52:59;;;;;;;0.03;0.00;;;0.70;91.50;;;;;;21061019;28;20109;-57
2022/02/22 19:03:02;;;;;;;0.68;0.03;;;0.50;92.10;;;;;;21060314;28;20036;-59
2022/02/22 19:13:05;;;;;;;0.00;0.00;;;0.30;92.50;;;;;;21059602;28;20040;-58
2022/02/22 19:23:08;;;;;;;0.00;0.00;;;0.30;92.00;;;;;;21059270;28;20092;-57
2022/02/22 19:33:11;;;;;;;1.08;0.10;;;0.40;91.70;;;;;;21057797;28;20748;-56
2022/02/22 19:43:15;;;;;;;0.98;0.13;;;0.60;91.50;;;;;;21057790;28;20028;-59
2022/02/22 19:53:20;;;;;;;0.30;0.00;;;0.50;91.50;;;;;;21057211;28;20089;-58
2022/02/22 20:03:23;;;;;;;0.00;0.00;;;0.40;91.60;;;;;;21057637;28;20549;-57
2022/02/22 20:13:26;;;;;;;0.10;0.00;;;0.40;91.50;;;;;;21056856;28;20093;-57
2022/02/22 20:23:28;;;;;;;0.68;0.10;;;0.40;90.90;;;;;;21056601;28;20081;-57
2022/02/22 20:33:31;;;;;;;0.13;0.10;;;0.40;92.40;;;;;;21039116;28;20032;-57
2022/02/22 20:43:36;;;;;;;0.28;0.08;;;0.30;91.30;;;;;;21027157;28;20040;-58
2022/02/22 20:53:38;;;;;;;0.00;0.00;;;0.40;91.20;;;;;;21070115;28;20040;-59
2022/02/22 21:03:42;;;;;;;0.00;0.00;;;0.40;91.40;;;;;;21069297;28;20062;-58
2022/02/22 21:13:45;;;;;;;0.00;0.00;;;0.40;90.90;;;;;;21068738;28;20086;-59
2022/02/22 21:23:47;;;;;;;4.07;0.00;;;0.40;90.90;;;;;;21068126;28;20541;-58
2022/02/22 21:33:50;;;;;;;0.17;0.10;;;0.50;90.40;;;;;;21067151;28;20116;-57
2022/02/22 21:43:53;;;;;;;2.70;0.10;;;0.40;90.30;;;;;;21066184;28;20062;-56
2022/02/22 21:53:56;;;;;;;0.63;0.20;;;0.30;92.00;;;;;;21065209;28;20179;-57
2022/02/22 22:03:58;;;;;;;1.13;0.10;;;0.10;92.10;;;;;;21065022;28;20552;-58
2022/02/22 22:14:01;;;;;;;0.32;0.10;;;0.00;92.80;;;;;;21064912;28;20507;-59
2022/02/22 22:24:04;;;;;;;0.90;0.10;;;0.00;93.40;;;;;;21064024;28;20435;-59
2022/02/22 22:34:06;;;;;;;0.50;0.10;;;0.00;93.30;;;;;;21063293;28;20082;-59
2022/02/22 22:44:10;;;;;;;1.02;0.20;;;0.10;93.30;;;;;;21045694;28;20308;-59
2022/02/22 22:54:13;;;;;;;1.05;0.10;;;0.00;93.50;;;;;;21061010;28;20082;-58
2022/02/22 23:04:15;;;;;;;1.17;0.20;;;0.00;93.60;;;;;;21060408;28;20070;-56
2022/02/22 23:14:18;;;;;;;1.38;0.10;;;0.00;93.50;;;;;;21059116;28;20040;-59
2022/02/22 23:24:21;;;;;;;0.20;0.10;;;0.10;92.60;;;;;;21058641;28;20048;-58
2022/02/22 23:34:23;;;;;;;0.95;0.10;;;0.20;92.80;;;;;;21058512;28;20356;-57
2022/02/22 23:44:27;;;;;;;0.50;0.10;;;0.10;93.10;;;;;;21058396;28;20036;-59
2022/02/22 23:54:29;;;;;;;0.40;0.10;;;0.00;93.30;;;;;;21040503;28;20105;-58
